createdAt,value
2023-01-05T00:00:35.624Z,100518.59
2023-01-05T00:03:05.538Z,100552.94
2023-01-05T00:05:37.789Z,100554.63
2023-01-05T00:08:08.090Z,100542.47
2023-01-05T00:10:52.001Z,100556.31
2023-01-05T00:13:34.176Z,100566.41
2023-01-05T00:16:16.389Z,100569.69
2023-01-05T00:18:58.617Z,100515.41
2023-01-05T00:21:55.036Z,100562.66
2023-01-05T00:24:24.690Z,100555.06
2023-01-05T00:26:54.392Z,100552.34
2023-01-05T00:29:24.372Z,100579.97
2023-01-05T00:31:54.037Z,100578.09
2023-01-05T00:34:24.849Z,100580.75
2023-01-05T00:36:57.145Z,100568.75
2023-01-05T00:39:27.130Z,100588.41
2023-01-05T00:41:56.847Z,100554.22
2023-01-05T00:44:26.486Z,100569.66
2023-01-05T00:46:57.008Z,100577.56
2023-01-05T00:49:27.126Z,100585.22
2023-01-05T00:51:59.366Z,100587.84
2023-01-05T00:54:29.361Z,100585.22
2023-01-05T00:56:59.136Z,100581.03
2023-01-05T00:59:29.193Z,100585.25
2023-01-05T01:01:59.055Z,100568.91
2023-01-05T01:04:28.789Z,100588.69
2023-01-05T01:07:01.169Z,100591.34
2023-01-05T01:09:31.276Z,100585.34
2023-01-05T01:12:01.000Z,100567.25
2023-01-05T01:14:30.802Z,100587.84
2023-01-05T01:17:00.784Z,100580.78
2023-01-05T01:19:31.038Z,100616.88
2023-01-05T01:22:04.230Z,100595.44
2023-01-05T01:24:33.901Z,100612.66
2023-01-05T01:27:03.711Z,100605.88
2023-01-05T01:29:33.673Z,100597.19
2023-01-05T01:32:03.397Z,100594.66
2023-01-05T01:34:33.779Z,100618.75
2023-01-05T01:37:06.157Z,100611.97
2023-01-05T01:39:41.533Z,100604.28
2023-01-05T01:42:16.944Z,100614.44
2023-01-05T01:44:56.896Z,100610.25
2023-01-05T01:47:39.454Z,100592.91
2023-01-05T01:50:17.202Z,100613.56
2023-01-05T01:52:52.830Z,100617.13
2023-01-05T01:55:23.545Z,100612.50
2023-01-05T01:57:54.836Z,100610.09
2023-01-05T02:00:24.590Z,100595.44
2023-01-05T02:02:57.438Z,100636.72
2023-01-05T02:05:30.994Z,100634.91
2023-01-05T02:08:03.286Z,100622.19
2023-01-05T02:10:45.576Z,100615.09
2023-01-05T02:13:31.589Z,100605.75
2023-01-05T02:16:09.888Z,100629.03
2023-01-05T02:18:56.217Z,100619.75
2023-01-05T02:21:35.387Z,100635.03
2023-01-05T02:24:37.039Z,100620.47
2023-01-05T02:27:37.380Z,100616.16
2023-01-05T02:30:37.381Z,100576.41
2023-01-05T02:33:19.776Z,100629.63
2023-01-05T02:36:06.338Z,100636.50
2023-01-05T02:38:41.523Z,100643.19
2023-01-05T02:41:16.583Z,100636.22
2023-01-05T02:43:47.953Z,100642.94
2023-01-05T02:46:17.614Z,100591.88
2023-01-05T02:48:54.268Z,100651.28
2023-01-05T02:51:29.160Z,100625.50
2023-01-05T02:54:04.148Z,100639.25
2023-01-05T02:56:38.903Z,100644.03
2023-01-05T02:59:15.860Z,100647.53
2023-01-05T03:01:50.062Z,100638.91
2023-01-05T03:04:27.704Z,100651.75
2023-01-05T03:06:59.582Z,100623.38
2023-01-05T03:09:37.555Z,100661.13
2023-01-05T03:12:31.148Z,100650.13
2023-01-05T03:15:06.546Z,100634.53
2023-01-05T03:17:44.352Z,100664.66
2023-01-05T03:20:19.322Z,100651.22
2023-01-05T03:23:04.262Z,100671.28
2023-01-05T03:25:49.685Z,100672.28
2023-01-05T03:28:35.463Z,100655.88
2023-01-05T03:31:24.831Z,100663.72
2023-01-05T03:34:12.902Z,100681.69
2023-01-05T03:36:51.987Z,100680.78
2023-01-05T03:39:26.692Z,100695.34
2023-01-05T03:41:58.668Z,100679.19
2023-01-05T03:44:28.726Z,100684.19
2023-01-05T03:46:59.351Z,100678.38
2023-01-05T03:49:29.101Z,100691.94
2023-01-05T03:52:01.452Z,100692.81
2023-01-05T03:54:31.861Z,100677.28
2023-01-05T03:57:01.515Z,100684.94
2023-01-05T03:59:31.643Z,100690.13
2023-01-05T04:02:02.773Z,100675.50
2023-01-05T04:04:32.545Z,100689.13
2023-01-05T04:07:07.438Z,100705.34
2023-01-05T04:09:37.981Z,100684.94
2023-01-05T04:12:08.471Z,100690.03
2023-01-05T04:14:42.805Z,100702.16
2023-01-05T04:17:12.606Z,100694.28
2023-01-05T04:19:42.875Z,100703.91
2023-01-05T04:22:16.034Z,100702.88
2023-01-05T04:24:46.858Z,100709.91
2023-01-05T04:27:16.616Z,100726.13
2023-01-05T04:29:46.252Z,100703.06
2023-01-05T04:32:16.480Z,100731.31
2023-01-05T04:34:47.165Z,100704.59
2023-01-05T04:37:19.505Z,100706.22
2023-01-05T04:39:49.583Z,100737.13
2023-01-05T04:42:19.825Z,100749.84
2023-01-05T04:44:55.532Z,100722.00
2023-01-05T04:47:25.337Z,100740.63
2023-01-05T04:49:55.019Z,100750.06
2023-01-05T04:52:27.825Z,100750.13
2023-01-05T04:54:57.759Z,100759.50
2023-01-05T04:57:29.453Z,100743.91
2023-01-05T05:00:00.886Z,100760.97
2023-01-05T05:02:33.650Z,100718.13
2023-01-05T05:05:03.668Z,100702.47
2023-01-05T05:07:36.143Z,100742.38
2023-01-05T05:10:08.058Z,100740.59
2023-01-05T05:12:38.198Z,100747.47
2023-01-05T05:15:10.075Z,100703.16
2023-01-05T05:17:44.116Z,100748.25
2023-01-05T05:20:19.058Z,100746.41
2023-01-05T05:22:51.347Z,100757.53
2023-01-05T05:25:23.399Z,100761.09
2023-01-05T05:27:53.657Z,100751.59
2023-01-05T05:30:23.345Z,100752.22
2023-01-05T05:32:52.971Z,100777.88
2023-01-05T05:35:22.753Z,100775.41
2023-01-05T05:37:56.842Z,100776.16
2023-01-05T05:40:26.767Z,100784.59
2023-01-05T05:42:56.653Z,100787.06
2023-01-05T05:45:26.290Z,100708.78
2023-01-05T05:47:56.002Z,100793.28
2023-01-05T05:50:25.710Z,100795.91
2023-01-05T05:52:57.951Z,100793.38
2023-01-05T05:55:27.669Z,100793.28
2023-01-05T05:57:57.287Z,100806.16
2023-01-05T06:00:26.946Z,100799.97
2023-01-05T06:02:56.708Z,100791.44
2023-01-05T06:05:26.528Z,100775.06
2023-01-05T06:07:58.759Z,100814.88
2023-01-05T06:10:28.858Z,100812.09
2023-01-05T06:12:58.809Z,100816.47
2023-01-05T06:15:28.486Z,100819.91
2023-01-05T06:17:58.128Z,100824.19
2023-01-05T06:20:27.773Z,100811.38
2023-01-05T06:23:00.115Z,100824.25
2023-01-05T06:25:29.771Z,100831.06
2023-01-05T06:27:59.401Z,100837.94
2023-01-05T06:30:29.097Z,100830.03
2023-01-05T06:32:58.852Z,100842.84
2023-01-05T06:35:28.594Z,100848.91
2023-01-05T06:38:01.155Z,100838.41
2023-01-05T06:40:30.850Z,100841.00
2023-01-05T06:43:01.083Z,100854.78
2023-01-05T06:45:30.832Z,100867.63
2023-01-05T06:48:01.187Z,100868.44
2023-01-05T06:50:32.993Z,100877.69
2023-01-05T06:53:05.585Z,100881.88
2023-01-05T06:55:35.253Z,100883.50
2023-01-05T06:58:04.898Z,100872.25
2023-01-05T07:00:34.698Z,100886.09
2023-01-05T07:03:04.510Z,100894.66
2023-01-05T07:05:34.261Z,100893.69
2023-01-05T07:08:06.749Z,100907.44
2023-01-05T07:10:36.407Z,100900.69
2023-01-05T07:13:06.049Z,100905.78
2023-01-05T07:15:35.742Z,100905.63
2023-01-05T07:18:05.613Z,100922.72
2023-01-05T07:20:35.278Z,100923.69
2023-01-05T07:23:07.491Z,100926.69
2023-01-05T07:25:37.165Z,100917.97
2023-01-05T07:28:07.257Z,100932.56
2023-01-05T07:30:36.901Z,100937.91
2023-01-05T07:33:06.671Z,100920.41
2023-01-05T07:35:36.350Z,100935.78
2023-01-05T07:38:08.709Z,100948.81
2023-01-05T07:40:38.643Z,100958.31
2023-01-05T07:43:08.343Z,100961.69
2023-01-05T07:45:38.053Z,100945.50
2023-01-05T07:48:08.290Z,100951.38
2023-01-05T07:50:38.276Z,100963.53
2023-01-05T07:53:10.515Z,100959.19
2023-01-05T07:55:40.159Z,100966.03
2023-01-05T07:58:09.809Z,100967.72
2023-01-05T08:00:39.410Z,100963.28
2023-01-05T08:03:09.050Z,100968.63
2023-01-05T08:05:38.673Z,100980.75
2023-01-05T08:08:11.092Z,100972.22
2023-01-05T08:10:42.271Z,100989.31
2023-01-05T08:13:26.192Z,100985.03
2023-01-05T08:15:57.418Z,100994.41
2023-01-05T08:18:28.202Z,100990.19
2023-01-05T08:20:59.655Z,100978.84
2023-01-05T08:23:34.733Z,100998.66
2023-01-05T08:26:08.291Z,100978.34
2023-01-05T08:28:39.112Z,101001.81
2023-01-05T08:31:16.637Z,100961.41
2023-01-05T08:33:46.743Z,100943.94
2023-01-05T08:36:19.779Z,101010.47
2023-01-05T08:38:54.709Z,101032.50
2023-01-05T08:41:30.188Z,100993.84
2023-01-05T08:44:03.173Z,101037.84
2023-01-05T08:46:35.368Z,101026.66
2023-01-05T08:49:07.135Z,101038.66
2023-01-05T08:51:38.074Z,101026.66
2023-01-05T08:54:10.441Z,101041.09
2023-01-05T08:56:40.164Z,101028.00
2023-01-05T08:59:14.325Z,101015.47
2023-01-05T09:01:44.230Z,101041.38
2023-01-05T09:04:13.983Z,101065.31
2023-01-05T09:06:44.097Z,101066.00
2023-01-05T09:09:16.413Z,101056.50
2023-01-05T09:11:48.147Z,101048.69
2023-01-05T09:14:18.892Z,101066.59
2023-01-05T09:17:06.354Z,101059.75
2023-01-05T09:19:37.502Z,101058.19
2023-01-05T09:22:07.362Z,101059.63
2023-01-05T09:24:39.790Z,101061.88
2023-01-05T09:27:09.571Z,101062.72
2023-01-05T09:29:39.316Z,101061.72
2023-01-05T09:32:11.556Z,101058.41
2023-01-05T09:34:42.812Z,101074.88
2023-01-05T09:37:13.698Z,101058.06
2023-01-05T09:39:46.079Z,101089.03
2023-01-05T09:42:19.577Z,101114.34
2023-01-05T09:44:58.482Z,101115.91
2023-01-05T09:47:35.161Z,101140.72
2023-01-05T09:50:07.420Z,101118.38
2023-01-05T09:52:39.267Z,101131.56
2023-01-05T09:55:18.370Z,101135.91
2023-01-05T09:57:55.059Z,101144.38
2023-01-05T10:00:26.914Z,101119.38
2023-01-05T10:03:01.664Z,101142.81
2023-01-05T10:05:34.404Z,101139.59
2023-01-05T10:08:18.846Z,101160.13
2023-01-05T10:11:11.408Z,101175.34
2023-01-05T10:13:48.336Z,101145.13
2023-01-05T10:16:24.625Z,101157.38
2023-01-05T10:18:57.624Z,101173.84
2023-01-05T10:21:39.225Z,101170.56
2023-01-05T10:24:29.536Z,101160.09
2023-01-05T10:27:25.814Z,101171.31
2023-01-05T10:30:12.157Z,101167.69
2023-01-05T10:33:03.869Z,101180.34
2023-01-05T10:36:05.268Z,101192.47
2023-01-05T10:38:51.243Z,101149.44
2023-01-05T10:41:29.881Z,101177.03
2023-01-05T10:44:46.296Z,101159.78
2023-01-05T10:47:16.902Z,101159.38
2023-01-05T10:49:50.048Z,101202.28
2023-01-05T10:52:22.816Z,101207.38
2023-01-05T10:54:55.684Z,101126.13
2023-01-05T10:57:43.093Z,101202.16
2023-01-05T11:00:20.885Z,101174.03
2023-01-05T11:02:54.424Z,101195.56
2023-01-05T11:05:30.947Z,101206.22
2023-01-05T11:08:04.756Z,101196.06
2023-01-05T11:10:38.372Z,101199.75
2023-01-05T11:13:10.301Z,101201.03
2023-01-05T11:15:48.120Z,101194.03
2023-01-05T11:18:28.823Z,101209.50
2023-01-05T11:21:08.020Z,101222.41
2023-01-05T11:23:40.158Z,101190.59
2023-01-05T11:26:40.582Z,101212.50
2023-01-05T11:29:17.469Z,101206.41
2023-01-05T11:31:56.858Z,101211.19
2023-01-05T11:34:36.168Z,101211.44
2023-01-05T11:37:10.744Z,101197.06
2023-01-05T11:39:50.303Z,101220.00
2023-01-05T11:42:25.717Z,101200.47
2023-01-05T11:44:59.853Z,101208.88
2023-01-05T11:47:43.570Z,101223.56
2023-01-05T11:50:25.189Z,101213.88
2023-01-05T11:52:56.934Z,101238.19
2023-01-05T11:55:36.080Z,101224.44
2023-01-05T11:58:26.685Z,101202.03
2023-01-05T12:01:26.320Z,101225.63
2023-01-05T12:04:06.742Z,101232.75
2023-01-05T12:06:59.174Z,101235.25
2023-01-05T12:09:35.305Z,101243.16
2023-01-05T12:12:27.614Z,101210.06
2023-01-05T12:15:35.987Z,101242.47
2023-01-05T12:18:21.254Z,101246.16
2023-01-05T12:21:07.908Z,101227.81
2023-01-05T12:24:07.142Z,101244.22
2023-01-05T12:26:49.577Z,101227.28
2023-01-05T12:36:13.348Z,101216.63
2023-01-05T12:38:51.128Z,101231.84
2023-01-05T12:41:43.180Z,101240.97
2023-01-05T12:44:46.617Z,101245.41
2023-01-05T12:47:42.675Z,101257.53
2023-01-05T12:50:25.929Z,101246.22
2023-01-05T12:53:03.184Z,101271.16
2023-01-05T12:55:44.700Z,101259.34
2023-01-05T12:58:20.307Z,101258.72
2023-01-05T13:00:53.299Z,101260.47
2023-01-05T13:03:30.695Z,101264.16
2023-01-05T13:06:07.353Z,101268.72
2023-01-05T13:08:47.264Z,101262.84
2023-01-05T13:11:24.949Z,101261.03
2023-01-05T13:13:58.957Z,101266.09
2023-01-05T13:16:35.359Z,101271.44
2023-01-05T13:19:09.360Z,101274.97
2023-01-05T13:21:44.530Z,101280.97
2023-01-05T13:24:23.193Z,101267.19
2023-01-05T13:26:53.157Z,101272.28
2023-01-05T13:29:27.241Z,101259.22
2023-01-05T13:35:12.168Z,101294.09
2023-01-05T13:38:23.755Z,101301.88
2023-01-05T13:41:10.717Z,101258.50
2023-01-05T13:44:14.233Z,101307.13
2023-01-05T13:47:04.307Z,101289.94
2023-01-05T13:50:11.545Z,101308.66
2023-01-05T13:52:57.651Z,101284.88
2023-01-05T13:55:29.052Z,101312.72
2023-01-05T13:58:05.897Z,101299.44
2023-01-05T14:00:43.089Z,101316.75
2023-01-05T14:03:23.933Z,101322.91
2023-01-05T14:05:58.310Z,101311.56
2023-01-05T14:08:34.236Z,101334.56
2023-01-05T14:11:13.566Z,101314.38
2023-01-05T14:13:50.366Z,101307.47
2023-01-05T14:16:51.899Z,101341.72
2023-01-05T14:19:52.549Z,101330.41
2023-01-05T14:22:36.568Z,101336.19
2023-01-05T14:25:36.336Z,101329.41
2023-01-05T14:28:37.035Z,101339.22
2023-01-05T14:31:46.153Z,101360.91
2023-01-05T14:34:23.254Z,101352.91
2023-01-05T14:37:08.889Z,101366.88
2023-01-05T14:39:45.067Z,101369.41
2023-01-05T14:42:29.747Z,101376.28
2023-01-05T14:45:04.049Z,101365.13
2023-01-05T14:47:42.967Z,101368.78
2023-01-05T14:50:35.118Z,101368.81
2023-01-05T14:53:15.505Z,101379.16
2023-01-05T14:56:18.711Z,101363.38
2023-01-05T14:58:59.083Z,101390.94
2023-01-05T15:04:16.749Z,101391.94
2023-01-05T15:07:03.354Z,101399.72
2023-01-05T15:09:46.520Z,101398.78
2023-01-05T15:12:36.514Z,101406.16
2023-01-05T15:15:50.240Z,101407.03
2023-01-05T15:18:56.089Z,101404.50
2023-01-05T15:21:51.209Z,101409.59
2023-01-05T15:24:45.851Z,101409.66
2023-01-05T15:27:42.936Z,101394.13
2023-01-05T15:30:34.202Z,101383.28
2023-01-05T15:33:15.167Z,101374.53
2023-01-05T15:35:50.255Z,101404.41
2023-01-05T15:38:25.472Z,101403.75
2023-01-05T15:41:09.087Z,101403.59
2023-01-05T15:43:41.653Z,101372.75
2023-01-05T15:46:14.375Z,101403.91
2023-01-05T15:48:48.919Z,101388.22
2023-01-05T15:51:25.345Z,101390.47
2023-01-05T15:54:00.337Z,101400.16
2023-01-05T15:56:39.788Z,101397.88
2023-01-05T15:59:25.280Z,101400.22
2023-01-05T16:01:54.984Z,101392.34
2023-01-05T16:04:25.903Z,101401.16
2023-01-05T16:07:02.187Z,101415.22
2023-01-05T16:09:35.580Z,101401.44
2023-01-05T16:12:23.175Z,101417.91
2023-01-05T16:14:57.856Z,101411.38
2023-01-05T16:17:30.768Z,101415.00
2023-01-05T16:20:07.819Z,101421.16
2023-01-05T16:22:44.498Z,101421.72
2023-01-05T16:25:19.059Z,101433.28
2023-01-05T16:27:58.698Z,101444.47
2023-01-05T16:30:35.450Z,101399.53
2023-01-05T16:33:11.743Z,101444.63
2023-01-05T16:35:44.961Z,101431.53
2023-01-05T16:38:28.128Z,101440.34
2023-01-05T16:41:08.650Z,101435.97
2023-01-05T16:43:52.078Z,101417.16
2023-01-05T16:46:36.056Z,101430.88
2023-01-05T16:49:26.347Z,101440.34
2023-01-05T16:51:57.458Z,101441.97
2023-01-05T16:54:36.908Z,101442.97
2023-01-05T16:57:30.036Z,101419.63
2023-01-05T17:00:02.493Z,101426.34
2023-01-05T17:02:49.026Z,101432.38
2023-01-05T17:05:26.667Z,101436.09
2023-01-05T17:08:07.098Z,101435.97
2023-01-05T17:10:36.864Z,101425.84
2023-01-05T17:13:10.680Z,101438.97
2023-01-05T17:15:46.907Z,101446.81
2023-01-05T17:18:31.364Z,101451.78
2023-01-05T17:21:02.686Z,101450.13
2023-01-05T17:23:36.496Z,101440.28
2023-01-05T17:26:08.927Z,101437.81
2023-01-05T17:28:42.180Z,101444.22
2023-01-05T17:31:19.310Z,101447.63
2023-01-05T17:33:50.160Z,101438.19
2023-01-05T17:36:29.217Z,101451.22
2023-01-05T17:39:00.986Z,101423.84
2023-01-05T17:41:31.937Z,101442.94
2023-01-05T17:44:02.721Z,101447.00
2023-01-05T17:46:40.550Z,101452.47
2023-01-05T17:49:17.043Z,101444.81
2023-01-05T17:51:47.191Z,101426.00
2023-01-05T17:54:17.468Z,101430.97
2023-01-05T17:56:47.181Z,101425.78
2023-01-05T17:59:16.897Z,101440.38
2023-01-05T18:01:54.286Z,101436.22
2023-01-05T18:04:25.454Z,101436.88
2023-01-05T18:06:59.049Z,101422.00
2023-01-05T18:09:28.710Z,101418.72
2023-01-05T18:11:58.461Z,101408.00
2023-01-05T18:14:28.430Z,101387.69
2023-01-05T18:17:00.838Z,101419.69
2023-01-05T18:19:32.572Z,101424.72
2023-01-05T18:22:04.644Z,101409.84
2023-01-05T18:24:34.394Z,101399.44
2023-01-05T18:27:07.080Z,101354.84
2023-01-05T18:29:36.992Z,101432.13
2023-01-05T18:32:10.861Z,101400.09
2023-01-05T18:34:40.921Z,101426.66
2023-01-05T18:37:21.486Z,101415.81
2023-01-05T18:39:57.508Z,101418.38
2023-01-05T18:42:28.819Z,101423.31
2023-01-05T18:45:09.178Z,101420.63
2023-01-05T18:47:53.536Z,101427.38
2023-01-05T18:50:27.160Z,101426.22
2023-01-05T18:52:57.935Z,101419.41
2023-01-05T18:55:27.629Z,101416.38
2023-01-05T18:57:57.358Z,101430.38
2023-01-05T19:00:27.078Z,101415.50
2023-01-05T19:03:00.396Z,101413.22
2023-01-05T19:05:30.167Z,101428.91
2023-01-05T19:08:00.903Z,101383.94
2023-01-05T19:10:33.157Z,101418.97
2023-01-05T19:13:07.066Z,101407.66
2023-01-05T19:15:37.327Z,101404.63
2023-01-05T19:18:10.133Z,101426.44
2023-01-05T19:20:39.905Z,101396.81
2023-01-05T19:23:12.778Z,101409.03
2023-01-05T19:25:43.075Z,101416.03
2023-01-05T19:28:12.843Z,101423.09
2023-01-05T19:30:42.699Z,101416.34
2023-01-05T19:33:16.073Z,101408.63
2023-01-05T19:35:46.742Z,101408.47
2023-01-05T19:38:18.140Z,101412.47
2023-01-05T19:40:51.806Z,101398.41
2023-01-05T19:43:22.704Z,101414.03
2023-01-05T19:45:52.513Z,101412.97
2023-01-05T19:48:26.835Z,101411.44
2023-01-05T19:51:02.962Z,101402.66
2023-01-05T19:53:35.799Z,101394.97
2023-01-05T19:56:06.444Z,101399.34
2023-01-05T19:58:36.875Z,101391.59
2023-01-05T20:01:10.103Z,101400.69
2023-01-05T20:03:44.521Z,101407.47
2023-01-05T20:06:18.354Z,101409.84
2023-01-05T20:08:52.800Z,101397.84
2023-01-05T20:11:39.544Z,101390.78
2023-01-05T20:14:15.210Z,101375.34
2023-01-05T20:16:49.798Z,101388.94
2023-01-05T20:19:26.923Z,101398.66
2023-01-05T20:22:00.617Z,101391.59
2023-01-05T20:24:32.770Z,101383.03
2023-01-05T20:27:04.874Z,101388.78
2023-01-05T20:29:35.061Z,101395.38
2023-01-05T20:32:09.241Z,101393.72
2023-01-05T20:34:42.903Z,101385.84
2023-01-05T20:37:14.289Z,101396.34
2023-01-05T20:39:45.282Z,101396.59
2023-01-05T20:42:15.348Z,101368.13
2023-01-05T20:44:47.616Z,101393.56
2023-01-05T20:47:17.890Z,101383.28
2023-01-05T20:49:50.890Z,101400.81
2023-01-05T20:52:23.868Z,101399.25
2023-01-05T20:55:01.692Z,101396.84
2023-01-05T20:57:31.421Z,101380.81
2023-01-05T21:00:06.476Z,101392.53
2023-01-05T21:02:36.248Z,101369.09
2023-01-05T21:05:15.209Z,101337.00
2023-01-05T21:07:45.102Z,101387.78
2023-01-05T21:10:14.883Z,101393.91
2023-01-05T21:12:44.550Z,101403.38
2023-01-05T21:15:14.325Z,101396.31
2023-01-05T21:17:43.994Z,101386.41
2023-01-05T21:20:16.455Z,101394.81
2023-01-05T21:22:46.964Z,101391.41
2023-01-05T21:25:19.793Z,101399.19
2023-01-05T21:27:49.453Z,101343.78
2023-01-05T21:30:24.120Z,101386.22
2023-01-05T21:32:54.860Z,101386.81
2023-01-05T21:35:27.202Z,101382.75
2023-01-05T21:37:57.007Z,101385.28
2023-01-05T21:40:30.353Z,101367.38
2023-01-05T21:43:02.210Z,101363.88
2023-01-05T21:45:34.638Z,101379.78
2023-01-05T21:48:05.381Z,101380.78
2023-01-05T21:50:50.370Z,101352.25
2023-01-05T21:53:33.615Z,101349.97
2023-01-05T21:56:16.793Z,101369.19
2023-01-05T21:58:47.960Z,101353.47
2023-01-05T22:01:19.795Z,101343.44
2023-01-05T22:03:49.816Z,101365.84
2023-01-05T22:06:24.070Z,101373.56
2023-01-05T22:08:53.927Z,101358.00
2023-01-05T22:11:23.803Z,101348.75
2023-01-05T22:13:55.550Z,101344.16
2023-01-05T22:16:28.828Z,101349.53
2023-01-05T22:18:58.529Z,101345.47
2023-01-05T22:21:34.509Z,101335.06
2023-01-05T22:24:04.411Z,101329.88
2023-01-05T22:26:36.067Z,101331.91
2023-01-05T22:29:05.847Z,101338.97
2023-01-05T22:31:38.840Z,101330.69
2023-01-05T22:34:11.517Z,101344.38
2023-01-05T22:36:43.840Z,101334.19
2023-01-05T22:39:18.228Z,101337.81
2023-01-05T22:41:48.361Z,101315.09
2023-01-05T22:44:20.693Z,101332.44
2023-01-05T22:46:50.477Z,101323.81
2023-01-05T22:49:23.741Z,101333.38
2023-01-05T22:51:56.065Z,101315.84
2023-01-05T22:54:25.871Z,101271.94
2023-01-05T22:56:56.589Z,101301.78
2023-01-05T22:59:28.505Z,101294.81
2023-01-05T23:01:58.383Z,101318.88
2023-01-05T23:04:28.161Z,101317.13
2023-01-05T23:07:02.453Z,101320.34
2023-01-05T23:09:33.484Z,101297.72
2023-01-05T23:12:05.431Z,101309.06
2023-01-05T23:14:38.786Z,101309.72
2023-01-05T23:17:12.391Z,101297.78
2023-01-05T23:19:42.127Z,101291.59
2023-01-05T23:22:15.366Z,101290.19
2023-01-05T23:24:45.321Z,101290.47
2023-01-05T23:27:18.807Z,101308.31
2023-01-05T23:29:49.533Z,101289.13
2023-01-05T23:32:20.277Z,101302.56
2023-01-05T23:34:54.804Z,101290.94
2023-01-05T23:37:27.228Z,101266.41
2023-01-05T23:39:58.553Z,101274.22
2023-01-05T23:42:40.978Z,101284.09
2023-01-05T23:45:12.137Z,101273.06
2023-01-05T23:47:43.154Z,101271.56
2023-01-05T23:50:13.900Z,101237.84
2023-01-05T23:52:46.114Z,101271.88
2023-01-05T23:55:16.838Z,101229.06
2023-01-05T23:57:46.557Z,101252.63
